Potomac Taxi I — WDJ7386 — position and weather

sailwx.info

Track history (hours):
 
Tides and Currents Weather Stations Pressure Air Temp Water Temp Dewpoint Dewpoint Depression Visibility Wind Speed Wind Dir Waves Ship Positions

Potomac Taxi I

Owner: Potomac River Boat Company, Alexandria, VA. More information available from US FCC via Universal Licensing System and Coast Guard Vessel Documentation Center.

Last reported at 2018-Apr-25 01:58 UTC. Time now 2018-Apr-25 10:10 UTC.
Position N 38°53' W 077°02'.

Length 27 m.

Type: Passenger vessel. MMSI: 368006220.

Date/timePositionNaut miles runAvg speedWind from/ knotsBaromVisibWave heightAir tempDewpointWater temp
2018-Apr-25 01:58N 38°53' W 077°02'0 0.8
2018-Apr-25 01:30N 38°52' W 077°01'4 7.4
2018-Apr-25 00:56N 38°48' W 077°02'4 9.7
2018-Apr-25 00:28N 38°53' W 077°02'0 0.5
2018-Apr-25 00:00N 38°53' W 077°01'4 8.0
2018-Apr-24 23:28N 38°48' W 077°02'4 9.8
2018-Apr-24 23:00N 38°53' W 077°02'4 8.7
2018-Apr-24 22:30N 38°48' W 077°02'3 5.7
2018-Apr-24 22:00N 38°51' W 077°01'2 3.2
2018-Apr-24 21:27N 38°53' W 077°02'0 0.0
2018-Apr-24 21:00N 38°53' W 077°02'0 0.0
2018-Apr-24 20:27N 38°53' W 077°02'3 5.4
2018-Apr-24 19:59N 38°50' W 077°02'1 2.4
2018-Apr-24 19:28N 38°49' W 077°02'4 6.3
2018-Apr-24 18:53N 38°53' W 077°02'410.8
2018-Apr-24 18:29N 38°48' W 077°02'4 7.9
2018-Apr-24 18:00N 38°52' W 077°01'0 0.1
2018-Apr-24 17:25N 38°52' W 077°01'4 7.3
2018-Apr-24 16:54N 38°48' W 077°02'411.1
2018-Apr-24 16:30N 38°53' W 077°02'0 0.0
2018-Apr-24 15:53N 38°53' W 077°02'0 0.0
2018-Apr-24 15:28N 38°53' W 077°02'0 0.0
2018-Apr-24 15:00N 38°53' W 077°02'0 0.8
2018-Apr-24 14:29N 38°52' W 077°01'0 0.3
2018-Apr-24 14:01N 38°52' W 077°01'0 0.7
2018-Apr-24 13:28N 38°53' W 077°02'0 0.0
2018-Apr-24 01:57N 38°53' W 077°02'0 0.4
2018-Apr-24 01:29N 38°53' W 077°02'4 8.2
2018-Apr-24 00:57N 38°48' W 077°02'4 8.5
2018-Apr-24 00:26N 38°53' W 077°02'1 1.3
2018-Apr-23 23:59N 38°52' W 077°01'4 7.4
2018-Apr-23 23:29N 38°49' W 077°02'4 8.8
2018-Apr-23 23:00N 38°53' W 077°02'4 8.3
2018-Apr-23 22:29N 38°48' W 077°02'3 6.5
2018-Apr-23 22:00N 38°51' W 077°01'1 2.6
2018-Apr-23 21:29N 38°53' W 077°02'0 0.0
2018-Apr-23 20:59N 38°53' W 077°02'0 0.0
2018-Apr-23 20:29N 38°53' W 077°02'4 8.5
2018-Apr-23 19:58N 38°48' W 077°02'0 0.0
2018-Apr-23 19:30N 38°48' W 077°02'4 7.0
2018-Apr-23 18:52N 38°53' W 077°02'411.7
2018-Apr-23 18:29N 38°48' W 077°02'3 5.8
2018-Apr-23 18:00N 38°51' W 077°01'1 2.6
2018-Apr-23 17:29N 38°52' W 077°01'4 7.6
2018-Apr-23 16:57N 38°48' W 077°02'410.0
2018-Apr-23 16:30N 38°53' W 077°02'0 0.0
2018-Apr-23 15:57N 38°53' W 077°02'0 0.1
2018-Apr-23 15:28N 38°53' W 077°02'0 0.1
2018-Apr-23 14:46N 38°53' W 077°02'0 0.0
2018-Apr-23 14:22N 38°53' W 077°02'0 0.0
2018-Apr-22 22:37N 38°53' W 077°02'0 0.4
2018-Apr-22 22:26N 38°53' W 077°02'0 0.0
2018-Apr-22 21:59N 38°53' W 077°02'0 0.0
2018-Apr-22 21:29N 38°53' W 077°02'2 3.3
2018-Apr-22 21:00N 38°51' W 077°01'2 2.8
2018-Apr-22 20:26N 38°53' W 077°02'0 0.0
2018-Apr-22 19:59N 38°53' W 077°02'0 0.0
2018-Apr-22 19:26N 38°53' W 077°02'0 0.0
2018-Apr-22 18:59N 38°53' W 077°02'0 0.0
2018-Apr-22 18:26N 38°53' W 077°02'1 3.0
2018-Apr-22 18:00N 38°52' W 077°01'1 2.3
2018-Apr-22 17:26N 38°53' W 077°02'1 3.3
2018-Apr-22 16:59N 38°51' W 077°01'1 2.6
2018-Apr-22 16:24N 38°53' W 077°02'0 0.2
2018-Apr-22 16:00N 38°53' W 077°02'0 0.1
2018-Apr-22 15:16N 38°53' W 077°02'0 0.0
2018-Apr-21 22:38N 38°53' W 077°02'0 0.5
2018-Apr-21 22:29N 38°53' W 077°02'1 2.6
2018-Apr-21 21:56N 38°51' W 077°02'1 1.6
2018-Apr-21 21:08N 38°53' W 077°02'1 7.8
2018-Apr-21 20:57N 38°51' W 077°01'2 3.4
2018-Apr-21 20:30N 38°53' W 077°02'2 3.1
2018-Apr-21 19:58N 38°51' W 077°01'2 3.3
2018-Apr-21 19:29N 38°53' W 077°02'1 2.8
2018-Apr-21 18:59N 38°51' W 077°01'1 2.7
2018-Apr-21 18:29N 38°53' W 077°02'1 2.9
2018-Apr-21 17:59N 38°51' W 077°01'1 2.0
2018-Apr-21 17:16N 38°53' W 077°02'2 5.0
2018-Apr-21 16:58N 38°51' W 077°01'2 3.4
2018-Apr-21 16:30N 38°53' W 077°02'0 0.0
2018-Apr-21 16:00N 38°53' W 077°02'0 0.1
2018-Apr-21 15:29N 38°53' W 077°02'0 0.2
2018-Apr-21 14:58N 38°53' W 077°02'0 0.0
2018-Apr-21 14:28N 38°53' W 077°02'0 0.0
2018-Apr-21 13:58N 38°53' W 077°02'0 0.2
2018-Apr-21 13:31N 38°53' W 077°02'0 0.0
2018-Apr-21 13:00N 38°53' W 077°02'510.6
2018-Apr-21 12:30N 38°47' W 077°02'1 1.2
2018-Apr-21 12:00N 38°47' W 077°02'610.6
2018-Apr-21 11:26N 38°53' W 077°02'0 0.0
2018-Apr-21 04:34N 38°53' W 077°02'0 2.5
2018-Apr-21 04:29N 38°53' W 077°02'610.5
2018-Apr-21 03:55N 38°47' W 077°02'1 3.0
2018-Apr-21 03:28N 38°48' W 077°02'510.1
2018-Apr-21 03:00N 38°53' W 077°02'3 6.4
2018-Apr-21 02:28N 38°49' W 077°02'2 4.6
2018-Apr-21 01:57N 38°47' W 077°01'3 6.9
2018-Apr-21 01:30N 38°50' W 077°02'2 4.1
2018-Apr-21 00:57N 38°52' W 077°01'4 8.7
2018-Apr-21 00:29N 38°48' W 077°02'2 3.2
2018-Apr-21 00:00N 38°47' W 077°01'5 9.6
2018-Apr-20 23:30N 38°52' W 077°01'0 0.6
2018-Apr-20 23:00N 38°52' W 077°01'4 8.4
2018-Apr-20 22:28N 38°47' W 077°01'1 1.5
2018-Apr-20 21:59N 38°47' W 077°02'611.4
2018-Apr-20 21:30N 38°52' W 077°01'1 1.1
2018-Apr-20 20:59N 38°53' W 077°02'0 0.0
2018-Apr-20 20:29N 38°53' W 077°02'0 0.0
2018-Apr-20 19:59N 38°53' W 077°02'0 0.0
2018-Apr-20 19:29N 38°53' W 077°02'1 1.2
2018-Apr-20 18:59N 38°52' W 077°01'5 9.7
2018-Apr-20 18:28N 38°47' W 077°01'1 1.9
2018-Apr-20 17:58N 38°48' W 077°02'5 8.8
2018-Apr-20 17:22N 38°53' W 077°02'1 2.1
2018-Apr-20 16:59N 38°52' W 077°01'510.4
2018-Apr-20 16:30N 38°47' W 077°01'1 1.8
2018-Apr-20 15:59N 38°48' W 077°02'5 5.8
2018-Apr-20 15:06N 38°53' W 077°02'0 0.7
2018-Apr-20 14:54N 38°53' W 077°02'0 0.7
2018-Apr-20 14:30N 38°52' W 077°01'0 0.7
2018-Apr-20 13:54N 38°53' W 077°02'0 0.0
2018-Apr-20 13:24N 38°53' W 077°02'0 0.0
2018-Apr-20 12:57N 38°53' W 077°02'510.6
2018-Apr-20 12:29N 38°48' W 077°02'1 2.4
2018-Apr-20 11:59N 38°47' W 077°01'4 7.7
2018-Apr-20 11:30N 38°51' W 077°01'2 3.7
2018-Apr-20 10:59N 38°53' W 077°02'0 0.0
2018-Apr-20 10:26N 38°53' W 077°02'0 0.0
2018-Apr-20 02:41N 38°53' W 077°02'1 3.2
2018-Apr-20 02:29N 38°52' W 077°01'510.6
2018-Apr-20 02:00N 38°47' W 077°01'1 2.0
2018-Apr-20 01:30N 38°48' W 077°02'5 7.8
2018-Apr-20 00:52N 38°53' W 077°02'410.8
2018-Apr-20 00:28N 38°48' W 077°02'1 3.1
2018-Apr-20 00:00N 38°47' W 077°01'4 7.8
2018-Apr-19 23:26N 38°52' W 077°01'1 2.0
2018-Apr-19 22:55N 38°53' W 077°01'512.4
2018-Apr-19 22:30N 38°47' W 077°02'1 1.1
2018-Apr-19 22:00N 38°47' W 077°02'611.3
2018-Apr-19 21:30N 38°52' W 077°01'0 0.9
2018-Apr-19 21:00N 38°53' W 077°02'0 0.0
2018-Apr-19 20:30N 38°53' W 077°02'0 0.0
2018-Apr-19 19:57N 38°53' W 077°02'0 0.0
2018-Apr-19 19:30N 38°53' W 077°02'1 2.7
2018-Apr-19 19:00N 38°52' W 077°01'4 8.0
2018-Apr-19 18:27N 38°47' W 077°01'1 2.1
2018-Apr-19 18:00N 38°47' W 077°02'610.3
2018-Apr-19 17:25N 38°53' W 077°02'1 2.3
2018-Apr-19 17:00N 38°52' W 077°01'5 8.5
2018-Apr-19 16:27N 38°47' W 077°01'1 2.1
2018-Apr-19 15:59N 38°48' W 077°02'5 7.8
2018-Apr-19 15:19N 38°53' W 077°02'0 0.0
2018-Apr-19 14:37N 38°53' W 077°02'0 0.0
2018-Apr-19 14:28N 38°53' W 077°02'0 0.0
2018-Apr-19 13:50N 38°53' W 077°02'0 0.0
2018-Apr-19 13:28N 38°53' W 077°02'0 0.6
2018-Apr-19 12:57N 38°52' W 077°01'511.4
2018-Apr-19 12:30N 38°47' W 077°02'1 1.2
2018-Apr-19 11:50N 38°47' W 077°02'514.2
2018-Apr-19 11:28N 38°52' W 077°01'1 2.0
2018-Apr-19 10:56N 38°53' W 077°02'0 0.0
2018-Apr-19 10:29N 38°53' W 077°02'0 0.0
2018-Apr-19 01:10N 38°53' W 077°02'0 0.0
2018-Apr-19 00:55N 38°53' W 077°02'0 0.0
2018-Apr-19 00:28N 38°53' W 077°02'0 0.5
2018-Apr-18 23:59N 38°53' W 077°01'4 7.1
2018-Apr-18 23:26N 38°49' W 077°02'4 9.5
2018-Apr-18 23:00N 38°53' W 077°02'4 8.4
2018-Apr-18 22:28N 38°48' W 077°02'3 6.2
2018-Apr-18 21:59N 38°51' W 077°01'2 3.2
2018-Apr-18 21:30N 38°53' W 077°02'0 0.0
2018-Apr-18 20:53N 38°53' W 077°02'0 0.0
2018-Apr-18 20:29N 38°53' W 077°02'3 5.9
2018-Apr-18 19:56N 38°50' W 077°02'1 2.7
2018-Apr-18 19:29N 38°48' W 077°02'4 8.6
2018-Apr-18 18:58N 38°53' W 077°02'4 9.1
2018-Apr-18 18:29N 38°48' W 077°02'4 7.2
2018-Apr-18 17:59N 38°52' W 077°01'1 1.4
2018-Apr-18 17:29N 38°53' W 077°01'4 6.1
2018-Apr-18 16:49N 38°48' W 077°02'413.3
2018-Apr-18 16:30N 38°53' W 077°02'0 0.3
2018-Apr-18 15:53N 38°53' W 077°02'0 0.2
2018-Apr-18 15:28N 38°53' W 077°02'0 0.0
2018-Apr-18 01:30N 38°53' W 077°02'4 6.3
2018-Apr-18 00:51N 38°49' W 077°02'411.5
2018-Apr-18 00:29N 38°53' W 077°02'1 1.4
2018-Apr-18 00:00N 38°52' W 077°01'3 6.7
2018-Apr-17 23:30N 38°49' W 077°02'4 7.1
2018-Apr-17 22:59N 38°53' W 077°01'4 8.8
2018-Apr-17 22:30N 38°48' W 077°02'3 5.8
2018-Apr-17 22:00N 38°51' W 077°01'2 1.0
2018-Apr-17 20:16N 38°53' W 077°02'2 6.0
2018-Apr-17 20:00N 38°51' W 077°01'3 4.7
2018-Apr-17 19:27N 38°49' W 077°02'4 5.1
2018-Apr-17 18:46N 38°52' W 077°01'412.8
2018-Apr-17 18:28N 38°48' W 077°02'3 5.9
2018-Apr-17 18:00N 38°51' W 077°01'2 3.4
2018-Apr-17 17:30N 38°53' W 077°02'4 7.4
2018-Apr-17 16:55N 38°48' W 077°02'410.0
2018-Apr-17 16:28N 38°53' W 077°02'0 0.0
2018-Apr-17 15:58N 38°53' W 077°02'0 0.0
2018-Apr-17 15:28N 38°53' W 077°02'0 0.0
2018-Apr-17 14:58N 38°53' W 077°02'0 0.8
2018-Apr-17 14:28N 38°52' W 077°01'0 1.0
2018-Apr-17 13:59N 38°53' W 077°02'0 0.0
2018-Apr-17 01:39N 38°53' W 077°02'0 0.2
2018-Apr-17 01:29N 38°53' W 077°02'4 9.4
2018-Apr-17 01:00N 38°48' W 077°02'4 8.1
2018-Apr-17 00:27N 38°53' W 077°02'1 1.9
2018-Apr-16 23:57N 38°52' W 077°01'4 6.7
2018-Apr-16 23:26N 38°48' W 077°02'4 8.0
2018-Apr-16 22:52N 38°53' W 077°02'411.6
2018-Apr-16 22:30N 38°49' W 077°02'3 5.1
2018-Apr-16 21:59N 38°51' W 077°01'2 1.2
2018-Apr-16 20:29N 38°53' W 077°02'2 3.8
2018-Apr-16 19:59N 38°51' W 077°01'3 4.9
2018-Apr-16 19:27N 38°48' W 077°02'4 9.7
2018-Apr-16 18:59N 38°53' W 077°02'4 8.5
2018-Apr-16 18:28N 38°48' W 077°02'2 4.9
2018-Apr-16 17:59N 38°51' W 077°01'2 3.3
2018-Apr-16 17:29N 38°52' W 077°01'4 7.7
2018-Apr-16 16:58N 38°48' W 077°02'4 9.0
2018-Apr-16 16:30N 38°52' W 077°01'0 0.7
2018-Apr-16 15:59N 38°53' W 077°02'0 0.0
2018-Apr-16 15:29N 38°53' W 077°02'0 0.0
2018-Apr-16 02:50N 38°53' W 077°02'411.9
2018-Apr-16 02:27N 38°48' W 077°02'2 5.0
2018-Apr-16 02:00N 38°50' W 077°01'2 3.4
2018-Apr-16 01:26N 38°52' W 077°01'4 8.1
2018-Apr-16 00:56N 38°48' W 077°02'410.0
2018-Apr-16 00:30N 38°53' W 077°01'0 0.4
2018-Apr-15 23:57N 38°52' W 077°01'4 7.7
2018-Apr-15 23:25N 38°48' W 077°02'4 9.9
2018-Apr-15 22:58N 38°53' W 077°02'4 9.2
2018-Apr-15 22:30N 38°48' W 077°02'2 4.7
2018-Apr-15 22:00N 38°51' W 077°01'2 3.8
2018-Apr-15 21:30N 38°53' W 077°02'4 8.7
2018-Apr-15 20:59N 38°48' W 077°02'4 8.6
2018-Apr-15 20:29N 38°53' W 077°02'4 6.4
2018-Apr-15 19:53N 38°49' W 077°02'0 0.2
2018-Apr-15 19:26N 38°49' W 077°02'4 9.2
2018-Apr-15 19:00N 38°53' W 077°02'4 9.1
2018-Apr-15 18:30N 38°48' W 077°02'3 6.2
2018-Apr-15 17:57N 38°52' W 077°01'1 1.7
2018-Apr-15 17:30N 38°52' W 077°01'4 8.4
2018-Apr-15 17:00N 38°48' W 077°02'4 7.2
2018-Apr-15 16:23N 38°53' W 077°02'2 4.3
2018-Apr-15 16:00N 38°51' W 077°01'3 5.8
2018-Apr-15 15:30N 38°48' W 077°02'4 8.3
2018-Apr-15 14:58N 38°53' W 077°02'0 0.1
2018-Apr-15 14:29N 38°53' W 077°02'0 0.0
2018-Apr-15 04:18N 38°53' W 077°02'1 2.7
2018-Apr-15 04:00N 38°52' W 077°01'4 7.1
2018-Apr-15 03:29N 38°48' W 077°02'4 8.9
2018-Apr-15 02:59N 38°53' W 077°02'4 9.0
2018-Apr-15 02:30N 38°48' W 077°02'3 5.5
2018-Apr-15 02:00N 38°51' W 077°01'  
Track history (hours):
 
Tides and Currents Weather Stations Pressure Air Temp Water Temp Dewpoint Dewpoint Depression Visibility Wind Speed Wind Dir Waves Ship Positions

Potomac Taxi I

Owner: Potomac River Boat Company, Alexandria, VA. More information available from US FCC via Universal Licensing System and Coast Guard Vessel Documentation Center.

Last reported at 2018-Apr-25 01:58 UTC. Time now 2018-Apr-25 10:10 UTC.
Position N 38°53' W 077°02'.

Length 27 m.

Type: Passenger vessel. MMSI: 368006220.

Date/timePositionNaut miles runAvg speedWind from/ knotsBaromVisibWave heightAir tempDewpointWater temp
2018-Apr-25 01:58N 38°53' W 077°02'0 0.8
2018-Apr-25 01:30N 38°52' W 077°01'4 7.4
2018-Apr-25 00:56N 38°48' W 077°02'4 9.7
2018-Apr-25 00:28N 38°53' W 077°02'0 0.5
2018-Apr-25 00:00N 38°53' W 077°01'4 8.0
2018-Apr-24 23:28N 38°48' W 077°02'4 9.8
2018-Apr-24 23:00N 38°53' W 077°02'4 8.7
2018-Apr-24 22:30N 38°48' W 077°02'3 5.7
2018-Apr-24 22:00N 38°51' W 077°01'2 3.2
2018-Apr-24 21:27N 38°53' W 077°02'0 0.0
2018-Apr-24 21:00N 38°53' W 077°02'0 0.0
2018-Apr-24 20:27N 38°53' W 077°02'3 5.4
2018-Apr-24 19:59N 38°50' W 077°02'1 2.4
2018-Apr-24 19:28N 38°49' W 077°02'4 6.3
2018-Apr-24 18:53N 38°53' W 077°02'410.8
2018-Apr-24 18:29N 38°48' W 077°02'4 7.9
2018-Apr-24 18:00N 38°52' W 077°01'0 0.1
2018-Apr-24 17:25N 38°52' W 077°01'4 7.3
2018-Apr-24 16:54N 38°48' W 077°02'411.1
2018-Apr-24 16:30N 38°53' W 077°02'0 0.0
2018-Apr-24 15:53N 38°53' W 077°02'0 0.0
2018-Apr-24 15:28N 38°53' W 077°02'0 0.0
2018-Apr-24 15:00N 38°53' W 077°02'0 0.8
2018-Apr-24 14:29N 38°52' W 077°01'0 0.3
2018-Apr-24 14:01N 38°52' W 077°01'0 0.7
2018-Apr-24 13:28N 38°53' W 077°02'0 0.0
2018-Apr-24 01:57N 38°53' W 077°02'0 0.4
2018-Apr-24 01:29N 38°53' W 077°02'4 8.2
2018-Apr-24 00:57N 38°48' W 077°02'4 8.5
2018-Apr-24 00:26N 38°53' W 077°02'1 1.3
2018-Apr-23 23:59N 38°52' W 077°01'4 7.4
2018-Apr-23 23:29N 38°49' W 077°02'4 8.8
2018-Apr-23 23:00N 38°53' W 077°02'4 8.3
2018-Apr-23 22:29N 38°48' W 077°02'3 6.5
2018-Apr-23 22:00N 38°51' W 077°01'1 2.6
2018-Apr-23 21:29N 38°53' W 077°02'0 0.0
2018-Apr-23 20:59N 38°53' W 077°02'0 0.0
2018-Apr-23 20:29N 38°53' W 077°02'4 8.5
2018-Apr-23 19:58N 38°48' W 077°02'0 0.0
2018-Apr-23 19:30N 38°48' W 077°02'4 7.0
2018-Apr-23 18:52N 38°53' W 077°02'411.7
2018-Apr-23 18:29N 38°48' W 077°02'3 5.8
2018-Apr-23 18:00N 38°51' W 077°01'1 2.6
2018-Apr-23 17:29N 38°52' W 077°01'4 7.6
2018-Apr-23 16:57N 38°48' W 077°02'410.0
2018-Apr-23 16:30N 38°53' W 077°02'0 0.0
2018-Apr-23 15:57N 38°53' W 077°02'0 0.1
2018-Apr-23 15:28N 38°53' W 077°02'0 0.1
2018-Apr-23 14:46N 38°53' W 077°02'0 0.0
2018-Apr-23 14:22N 38°53' W 077°02'0 0.0
2018-Apr-22 22:37N 38°53' W 077°02'0 0.4
2018-Apr-22 22:26N 38°53' W 077°02'0 0.0
2018-Apr-22 21:59N 38°53' W 077°02'0 0.0
2018-Apr-22 21:29N 38°53' W 077°02'2 3.3
2018-Apr-22 21:00N 38°51' W 077°01'2 2.8
2018-Apr-22 20:26N 38°53' W 077°02'0 0.0
2018-Apr-22 19:59N 38°53' W 077°02'0 0.0
2018-Apr-22 19:26N 38°53' W 077°02'0 0.0
2018-Apr-22 18:59N 38°53' W 077°02'0 0.0
2018-Apr-22 18:26N 38°53' W 077°02'1 3.0
2018-Apr-22 18:00N 38°52' W 077°01'1 2.3
2018-Apr-22 17:26N 38°53' W 077°02'1 3.3
2018-Apr-22 16:59N 38°51' W 077°01'1 2.6
2018-Apr-22 16:24N 38°53' W 077°02'0 0.2
2018-Apr-22 16:00N 38°53' W 077°02'0 0.1
2018-Apr-22 15:16N 38°53' W 077°02'0 0.0
2018-Apr-21 22:38N 38°53' W 077°02'0 0.5
2018-Apr-21 22:29N 38°53' W 077°02'1 2.6
2018-Apr-21 21:56N 38°51' W 077°02'1 1.6
2018-Apr-21 21:08N 38°53' W 077°02'1 7.8
2018-Apr-21 20:57N 38°51' W 077°01'2 3.4
2018-Apr-21 20:30N 38°53' W 077°02'2 3.1
2018-Apr-21 19:58N 38°51' W 077°01'2 3.3
2018-Apr-21 19:29N 38°53' W 077°02'1 2.8
2018-Apr-21 18:59N 38°51' W 077°01'1 2.7
2018-Apr-21 18:29N 38°53' W 077°02'1 2.9
2018-Apr-21 17:59N 38°51' W 077°01'1 2.0
2018-Apr-21 17:16N 38°53' W 077°02'2 5.0
2018-Apr-21 16:58N 38°51' W 077°01'2 3.4
2018-Apr-21 16:30N 38°53' W 077°02'0 0.0
2018-Apr-21 16:00N 38°53' W 077°02'0 0.1
2018-Apr-21 15:29N 38°53' W 077°02'0 0.2
2018-Apr-21 14:58N 38°53' W 077°02'0 0.0
2018-Apr-21 14:28N 38°53' W 077°02'0 0.0
2018-Apr-21 13:58N 38°53' W 077°02'0 0.2
2018-Apr-21 13:31N 38°53' W 077°02'0 0.0
2018-Apr-21 13:00N 38°53' W 077°02'510.6
2018-Apr-21 12:30N 38°47' W 077°02'1 1.2
2018-Apr-21 12:00N 38°47' W 077°02'610.6
2018-Apr-21 11:26N 38°53' W 077°02'0 0.0
2018-Apr-21 04:34N 38°53' W 077°02'0 2.5
2018-Apr-21 04:29N 38°53' W 077°02'610.5
2018-Apr-21 03:55N 38°47' W 077°02'1 3.0
2018-Apr-21 03:28N 38°48' W 077°02'510.1
2018-Apr-21 03:00N 38°53' W 077°02'3 6.4
2018-Apr-21 02:28N 38°49' W 077°02'2 4.6
2018-Apr-21 01:57N 38°47' W 077°01'3 6.9
2018-Apr-21 01:30N 38°50' W 077°02'2 4.1
2018-Apr-21 00:57N 38°52' W 077°01'4 8.7
2018-Apr-21 00:29N 38°48' W 077°02'2 3.2
2018-Apr-21 00:00N 38°47' W 077°01'5 9.6
2018-Apr-20 23:30N 38°52' W 077°01'0 0.6
2018-Apr-20 23:00N 38°52' W 077°01'4 8.4
2018-Apr-20 22:28N 38°47' W 077°01'1 1.5
2018-Apr-20 21:59N 38°47' W 077°02'611.4
2018-Apr-20 21:30N 38°52' W 077°01'1 1.1
2018-Apr-20 20:59N 38°53' W 077°02'0 0.0
2018-Apr-20 20:29N 38°53' W 077°02'0 0.0
2018-Apr-20 19:59N 38°53' W 077°02'0 0.0
2018-Apr-20 19:29N 38°53' W 077°02'1 1.2
2018-Apr-20 18:59N 38°52' W 077°01'5 9.7
2018-Apr-20 18:28N 38°47' W 077°01'1 1.9
2018-Apr-20 17:58N 38°48' W 077°02'5 8.8
2018-Apr-20 17:22N 38°53' W 077°02'1 2.1
2018-Apr-20 16:59N 38°52' W 077°01'510.4
2018-Apr-20 16:30N 38°47' W 077°01'1 1.8
2018-Apr-20 15:59N 38°48' W 077°02'5 5.8
2018-Apr-20 15:06N 38°53' W 077°02'0 0.7
2018-Apr-20 14:54N 38°53' W 077°02'0 0.7
2018-Apr-20 14:30N 38°52' W 077°01'0 0.7
2018-Apr-20 13:54N 38°53' W 077°02'0 0.0
2018-Apr-20 13:24N 38°53' W 077°02'0 0.0
2018-Apr-20 12:57N 38°53' W 077°02'510.6
2018-Apr-20 12:29N 38°48' W 077°02'1 2.4
2018-Apr-20 11:59N 38°47' W 077°01'4 7.7
2018-Apr-20 11:30N 38°51' W 077°01'2 3.7
2018-Apr-20 10:59N 38°53' W 077°02'0 0.0
2018-Apr-20 10:26N 38°53' W 077°02'0 0.0
2018-Apr-20 02:41N 38°53' W 077°02'1 3.2
2018-Apr-20 02:29N 38°52' W 077°01'510.6
2018-Apr-20 02:00N 38°47' W 077°01'1 2.0
2018-Apr-20 01:30N 38°48' W 077°02'5 7.8
2018-Apr-20 00:52N 38°53' W 077°02'410.8
2018-Apr-20 00:28N 38°48' W 077°02'1 3.1
2018-Apr-20 00:00N 38°47' W 077°01'4 7.8
2018-Apr-19 23:26N 38°52' W 077°01'1 2.0
2018-Apr-19 22:55N 38°53' W 077°01'512.4
2018-Apr-19 22:30N 38°47' W 077°02'1 1.1
2018-Apr-19 22:00N 38°47' W 077°02'611.3
2018-Apr-19 21:30N 38°52' W 077°01'0 0.9
2018-Apr-19 21:00N 38°53' W 077°02'0 0.0
2018-Apr-19 20:30N 38°53' W 077°02'0 0.0
2018-Apr-19 19:57N 38°53' W 077°02'0 0.0
2018-Apr-19 19:30N 38°53' W 077°02'1 2.7
2018-Apr-19 19:00N 38°52' W 077°01'4 8.0
2018-Apr-19 18:27N 38°47' W 077°01'1 2.1
2018-Apr-19 18:00N 38°47' W 077°02'610.3
2018-Apr-19 17:25N 38°53' W 077°02'1 2.3
2018-Apr-19 17:00N 38°52' W 077°01'5 8.5
2018-Apr-19 16:27N 38°47' W 077°01'1 2.1
2018-Apr-19 15:59N 38°48' W 077°02'5 7.8
2018-Apr-19 15:19N 38°53' W 077°02'0 0.0
2018-Apr-19 14:37N 38°53' W 077°02'0 0.0
2018-Apr-19 14:28N 38°53' W 077°02'0 0.0
2018-Apr-19 13:50N 38°53' W 077°02'0 0.0
2018-Apr-19 13:28N 38°53' W 077°02'0 0.6
2018-Apr-19 12:57N 38°52' W 077°01'511.4
2018-Apr-19 12:30N 38°47' W 077°02'1 1.2
2018-Apr-19 11:50N 38°47' W 077°02'514.2
2018-Apr-19 11:28N 38°52' W 077°01'1 2.0
2018-Apr-19 10:56N 38°53' W 077°02'0 0.0
2018-Apr-19 10:29N 38°53' W 077°02'0 0.0
2018-Apr-19 01:10N 38°53' W 077°02'0 0.0
2018-Apr-19 00:55N 38°53' W 077°02'0 0.0
2018-Apr-19 00:28N 38°53' W 077°02'0 0.5
2018-Apr-18 23:59N 38°53' W 077°01'4 7.1
2018-Apr-18 23:26N 38°49' W 077°02'4 9.5
2018-Apr-18 23:00N 38°53' W 077°02'4 8.4
2018-Apr-18 22:28N 38°48' W 077°02'3 6.2
2018-Apr-18 21:59N 38°51' W 077°01'2 3.2
2018-Apr-18 21:30N 38°53' W 077°02'0 0.0
2018-Apr-18 20:53N 38°53' W 077°02'0 0.0
2018-Apr-18 20:29N 38°53' W 077°02'3 5.9
2018-Apr-18 19:56N 38°50' W 077°02'1 2.7
2018-Apr-18 19:29N 38°48' W 077°02'4 8.6
2018-Apr-18 18:58N 38°53' W 077°02'4 9.1
2018-Apr-18 18:29N 38°48' W 077°02'4 7.2
2018-Apr-18 17:59N 38°52' W 077°01'1 1.4
2018-Apr-18 17:29N 38°53' W 077°01'4 6.1
2018-Apr-18 16:49N 38°48' W 077°02'413.3
2018-Apr-18 16:30N 38°53' W 077°02'0 0.3
2018-Apr-18 15:53N 38°53' W 077°02'0 0.2
2018-Apr-18 15:28N 38°53' W 077°02'0 0.0
2018-Apr-18 01:30N 38°53' W 077°02'4 6.3
2018-Apr-18 00:51N 38°49' W 077°02'411.5
2018-Apr-18 00:29N 38°53' W 077°02'1 1.4
2018-Apr-18 00:00N 38°52' W 077°01'3 6.7
2018-Apr-17 23:30N 38°49' W 077°02'4 7.1
2018-Apr-17 22:59N 38°53' W 077°01'4 8.8
2018-Apr-17 22:30N 38°48' W 077°02'3 5.8
2018-Apr-17 22:00N 38°51' W 077°01'2 1.0
2018-Apr-17 20:16N 38°53' W 077°02'2 6.0
2018-Apr-17 20:00N 38°51' W 077°01'3 4.7
2018-Apr-17 19:27N 38°49' W 077°02'4 5.1
2018-Apr-17 18:46N 38°52' W 077°01'412.8
2018-Apr-17 18:28N 38°48' W 077°02'3 5.9
2018-Apr-17 18:00N 38°51' W 077°01'2 3.4
2018-Apr-17 17:30N 38°53' W 077°02'4 7.4
2018-Apr-17 16:55N 38°48' W 077°02'410.0
2018-Apr-17 16:28N 38°53' W 077°02'0 0.0
2018-Apr-17 15:58N 38°53' W 077°02'0 0.0
2018-Apr-17 15:28N 38°53' W 077°02'0 0.0
2018-Apr-17 14:58N 38°53' W 077°02'0 0.8
2018-Apr-17 14:28N 38°52' W 077°01'0 1.0
2018-Apr-17 13:59N 38°53' W 077°02'0 0.0
2018-Apr-17 01:39N 38°53' W 077°02'0 0.2
2018-Apr-17 01:29N 38°53' W 077°02'4 9.4
2018-Apr-17 01:00N 38°48' W 077°02'4 8.1
2018-Apr-17 00:27N 38°53' W 077°02'1 1.9
2018-Apr-16 23:57N 38°52' W 077°01'4 6.7
2018-Apr-16 23:26N 38°48' W 077°02'4 8.0
2018-Apr-16 22:52N 38°53' W 077°02'411.6
2018-Apr-16 22:30N 38°49' W 077°02'3 5.1
2018-Apr-16 21:59N 38°51' W 077°01'2 1.2
2018-Apr-16 20:29N 38°53' W 077°02'2 3.8
2018-Apr-16 19:59N 38°51' W 077°01'3 4.9
2018-Apr-16 19:27N 38°48' W 077°02'4 9.7
2018-Apr-16 18:59N 38°53' W 077°02'4 8.5
2018-Apr-16 18:28N 38°48' W 077°02'2 4.9
2018-Apr-16 17:59N 38°51' W 077°01'2 3.3
2018-Apr-16 17:29N 38°52' W 077°01'4 7.7
2018-Apr-16 16:58N 38°48' W 077°02'4 9.0
2018-Apr-16 16:30N 38°52' W 077°01'0 0.7
2018-Apr-16 15:59N 38°53' W 077°02'0 0.0
2018-Apr-16 15:29N 38°53' W 077°02'0 0.0
2018-Apr-16 02:50N 38°53' W 077°02'411.9
2018-Apr-16 02:27N 38°48' W 077°02'2 5.0
2018-Apr-16 02:00N 38°50' W 077°01'2 3.4
2018-Apr-16 01:26N 38°52' W 077°01'4 8.1
2018-Apr-16 00:56N 38°48' W 077°02'410.0
2018-Apr-16 00:30N 38°53' W 077°01'0 0.4
2018-Apr-15 23:57N 38°52' W 077°01'4 7.7
2018-Apr-15 23:25N 38°48' W 077°02'4 9.9
2018-Apr-15 22:58N 38°53' W 077°02'4 9.2
2018-Apr-15 22:30N 38°48' W 077°02'2 4.7
2018-Apr-15 22:00N 38°51' W 077°01'2 3.8
2018-Apr-15 21:30N 38°53' W 077°02'4 8.7
2018-Apr-15 20:59N 38°48' W 077°02'4 8.6
2018-Apr-15 20:29N 38°53' W 077°02'4 6.4
2018-Apr-15 19:53N 38°49' W 077°02'0 0.2
2018-Apr-15 19:26N 38°49' W 077°02'4 9.2
2018-Apr-15 19:00N 38°53' W 077°02'4 9.1
2018-Apr-15 18:30N 38°48' W 077°02'3 6.2
2018-Apr-15 17:57N 38°52' W 077°01'1 1.7
2018-Apr-15 17:30N 38°52' W 077°01'4 8.4
2018-Apr-15 17:00N 38°48' W 077°02'4 7.2
2018-Apr-15 16:23N 38°53' W 077°02'2 4.3
2018-Apr-15 16:00N 38°51' W 077°01'3 5.8
2018-Apr-15 15:30N 38°48' W 077°02'4 8.3
2018-Apr-15 14:58N 38°53' W 077°02'0 0.1
2018-Apr-15 14:29N 38°53' W 077°02'0 0.0
2018-Apr-15 04:18N 38°53' W 077°02'1 2.7
2018-Apr-15 04:00N 38°52' W 077°01'4 7.1
2018-Apr-15 03:29N 38°48' W 077°02'4 8.9
2018-Apr-15 02:59N 38°53' W 077°02'4 9.0
2018-Apr-15 02:30N 38°48' W 077°02'3 5.5
2018-Apr-15 02:00N 38°51' W 077°01'  

Dump ship's entire track history